createdAt,value
2023-05-22T00:00:15.814Z,15.9
2023-05-22T00:01:23.309Z,15.9
2023-05-22T00:02:30.516Z,15.8
2023-05-22T00:03:40.245Z,15.7
2023-05-22T00:04:47.277Z,15.7
2023-05-22T00:06:01.531Z,15.7
2023-05-22T00:07:09.195Z,15.7
2023-05-22T00:08:16.215Z,15.7
2023-05-22T00:09:25.546Z,15.7
2023-05-22T00:10:33.246Z,15.6
2023-05-22T00:11:45.411Z,15.6
2023-05-22T00:12:54.952Z,15.6
2023-05-22T00:14:04.549Z,15.5
2023-05-22T00:15:13.260Z,15.5
2023-05-22T00:16:20.490Z,15.5
2023-05-22T00:17:30.683Z,15.5
2023-05-22T00:18:57.538Z,15.4
2023-05-22T00:20:05.824Z,15.4
2023-05-22T00:21:18.626Z,15.5
2023-05-22T00:22:25.565Z,15.4
2023-05-22T00:23:32.610Z,15.4
2023-05-22T00:24:42.475Z,15.4
2023-05-22T00:25:52.211Z,15.4
2023-05-22T00:27:02.182Z,15.4
2023-05-22T00:28:20.482Z,15.4
2023-05-22T00:29:38.695Z,15.3
2023-05-22T00:30:49.886Z,15.3
2023-05-22T00:31:57.529Z,15.3
2023-05-22T00:33:04.638Z,15.3
2023-05-22T00:34:11.979Z,15.2
2023-05-22T00:35:19.013Z,15.3
2023-05-22T00:36:26.030Z,15.3
2023-05-22T00:37:32.961Z,15.3
2023-05-22T00:38:40.927Z,15.3
2023-05-22T00:39:48.320Z,15.2
2023-05-22T00:40:55.776Z,15.2
2023-05-22T00:42:02.807Z,15.3
2023-05-22T00:43:10.064Z,15.2
2023-05-22T00:44:17.746Z,15.1
2023-05-22T00:45:24.872Z,15.1
2023-05-22T00:46:36.331Z,15.1
2023-05-22T00:47:47.158Z,15.1
2023-05-22T00:49:01.549Z,15.1
2023-05-22T00:50:11.313Z,15.1
2023-05-22T00:51:18.267Z,15.2
2023-05-22T00:52:25.557Z,15.1
2023-05-22T00:53:35.307Z,15.1
2023-05-22T00:54:42.240Z,15.1
2023-05-22T00:55:49.222Z,15.1
2023-05-22T00:57:02.764Z,15
2023-05-22T00:58:09.800Z,14.9
2023-05-22T00:59:19.796Z,15
2023-05-22T01:00:35.610Z,15
2023-05-22T01:01:43.309Z,15
2023-05-22T01:03:02.372Z,15
2023-05-22T01:04:09.286Z,14.9
2023-05-22T01:05:19.231Z,15
2023-05-22T01:06:27.077Z,15
2023-05-22T01:07:34.327Z,15
2023-05-22T01:08:43.883Z,15
2023-05-22T01:09:51.385Z,14.9
2023-05-22T01:10:58.440Z,14.9
2023-05-22T01:12:08.950Z,14.9
2023-05-22T01:13:32.655Z,14.9
2023-05-22T01:14:51.947Z,14.9
2023-05-22T01:15:59.237Z,14.9
2023-05-22T01:17:14.255Z,14.9
2023-05-22T01:18:27.164Z,14.9
2023-05-22T01:19:52.584Z,14.9
2023-05-22T01:21:05.205Z,14.9
2023-05-22T01:22:19.321Z,14.9
2023-05-22T01:23:31.488Z,15
2023-05-22T01:24:53.234Z,14.9
2023-05-22T01:26:00.555Z,14.9
2023-05-22T01:27:16.261Z,14.8
2023-05-22T01:28:23.692Z,14.9
2023-05-22T01:29:40.812Z,14.9
2023-05-22T01:30:58.081Z,14.9
2023-05-22T01:32:05.509Z,14.9
2023-05-22T01:33:13.420Z,14.9
2023-05-22T01:34:28.095Z,14.8
2023-05-22T01:35:38.827Z,14.8
2023-05-22T01:36:45.728Z,14.9
2023-05-22T01:37:55.334Z,14.9
2023-05-22T01:39:12.831Z,14.9
2023-05-22T01:40:20.714Z,14.8
2023-05-22T01:41:31.907Z,14.8
2023-05-22T01:42:44.074Z,14.8
2023-05-22T01:43:51.610Z,14.8
2023-05-22T01:44:59.220Z,14.7
2023-05-22T01:46:27.163Z,14.7
2023-05-22T01:47:36.662Z,14.7
2023-05-22T01:48:45.938Z,14.7
2023-05-22T01:49:54.022Z,14.7
2023-05-22T01:51:22.331Z,14.8
2023-05-22T01:52:34.893Z,14.8
2023-05-22T01:53:47.157Z,14.7
2023-05-22T01:54:57.289Z,14.7
2023-05-22T01:56:05.831Z,14.7
2023-05-22T01:57:20.185Z,14.7
2023-05-22T01:58:33.772Z,14.7
2023-05-22T01:59:45.453Z,14.7
2023-05-22T02:00:52.593Z,14.7
2023-05-22T02:02:00.963Z,14.7
2023-05-22T02:03:16.904Z,14.6
2023-05-22T02:04:24.423Z,14.6
2023-05-22T02:05:37.142Z,14.6
2023-05-22T02:06:45.486Z,14.6
2023-05-22T02:07:52.515Z,14.6
2023-05-22T02:09:03.910Z,14.5
2023-05-22T02:10:10.907Z,14.6
2023-05-22T02:11:24.395Z,14.5
2023-05-22T02:12:32.264Z,14.5
2023-05-22T02:13:39.648Z,14.5
2023-05-22T02:14:49.140Z,14.5
2023-05-22T02:15:56.439Z,14.5
2023-05-22T02:17:14.040Z,14.5
2023-05-22T02:18:23.834Z,14.5
2023-05-22T02:19:36.764Z,14.4
2023-05-22T02:20:43.698Z,14.5
2023-05-22T02:21:55.337Z,14.4
2023-05-22T02:23:03.507Z,14.4
2023-05-22T02:24:18.907Z,14.4
2023-05-22T02:25:37.449Z,14.4
2023-05-22T02:26:45.070Z,14.4
2023-05-22T02:27:52.478Z,14.4
2023-05-22T02:29:02.214Z,14.4
2023-05-22T02:30:09.142Z,14.3
2023-05-22T02:31:16.889Z,14.3
2023-05-22T02:32:27.361Z,14.3
2023-05-22T02:33:41.028Z,14.3
2023-05-22T02:34:54.743Z,14.3
2023-05-22T02:36:02.674Z,14.3
2023-05-22T02:37:11.107Z,14.2
2023-05-22T02:38:18.114Z,14.2
2023-05-22T02:39:26.048Z,14.2
2023-05-22T02:40:33.216Z,14.1
2023-05-22T02:41:42.968Z,14.1
2023-05-22T02:42:54.159Z,14.1
2023-05-22T02:44:01.328Z,14.1
2023-05-22T02:45:08.638Z,14.1
2023-05-22T02:46:19.276Z,14.1
2023-05-22T02:47:30.549Z,14.1
2023-05-22T02:48:37.676Z,14.1
2023-05-22T02:49:47.764Z,14.1
2023-05-22T02:50:54.794Z,14
2023-05-22T02:52:01.840Z,14
2023-05-22T02:53:09.541Z,14
2023-05-22T02:54:17.292Z,14
2023-05-22T02:55:24.936Z,13.9
2023-05-22T02:56:37.202Z,13.9
2023-05-22T02:57:44.861Z,13.9
2023-05-22T02:58:58.176Z,13.9
2023-05-22T03:00:06.024Z,13.9
2023-05-22T03:01:13.161Z,13.9
2023-05-22T03:02:21.605Z,13.9
2023-05-22T03:03:28.636Z,13.9
2023-05-22T03:04:35.751Z,13.9
2023-05-22T03:05:42.764Z,13.9
2023-05-22T03:06:49.831Z,13.9
2023-05-22T03:07:59.708Z,13.8
2023-05-22T03:09:09.669Z,13.8
2023-05-22T03:10:18.304Z,13.8
2023-05-22T03:11:30.607Z,13.8
2023-05-22T03:12:38.267Z,13.8
2023-05-22T03:13:45.727Z,13.8
2023-05-22T03:14:55.687Z,13.7
2023-05-22T03:16:05.538Z,13.8
2023-05-22T03:17:12.600Z,13.8
2023-05-22T03:18:27.331Z,13.7
2023-05-22T03:19:34.320Z,13.8
2023-05-22T03:20:42.560Z,13.7
2023-05-22T03:21:49.692Z,13.7
2023-05-22T03:22:58.258Z,13.8
2023-05-22T03:24:08.366Z,13.7
2023-05-22T03:25:15.820Z,13.7
2023-05-22T03:26:23.198Z,13.7
2023-05-22T03:27:30.559Z,13.7
2023-05-22T03:28:37.585Z,13.7
2023-05-22T03:29:44.628Z,13.7
2023-05-22T03:30:56.868Z,13.7
2023-05-22T03:32:04.070Z,13.7
2023-05-22T03:33:11.518Z,13.6
2023-05-22T03:34:19.887Z,13.6
2023-05-22T03:35:28.573Z,13.7
2023-05-22T03:36:37.836Z,13.7
2023-05-22T03:37:46.924Z,13.7
2023-05-22T03:39:28.105Z,13.6
2023-05-22T03:41:44.200Z,13.7
2023-05-22T03:45:41.113Z,13.7
2023-05-22T03:46:49.337Z,13.7
2023-05-22T03:47:59.987Z,13.8
2023-05-22T03:50:27.474Z,13.8
2023-05-22T03:53:39.428Z,13.8
2023-05-22T03:54:51.225Z,13.8
2023-05-22T03:57:53.584Z,13.7
2023-05-22T03:59:07.297Z,13.8
2023-05-22T04:00:14.886Z,13.8
2023-05-22T04:01:31.016Z,13.9
2023-05-22T04:03:26.961Z,13.9
2023-05-22T04:04:43.981Z,13.9
2023-05-22T04:06:51.905Z,13.9
2023-05-22T04:08:19.969Z,13.9
2023-05-22T04:09:28.946Z,13.9
2023-05-22T04:11:28.205Z,14
2023-05-22T04:13:25.137Z,14.1
2023-05-22T04:14:32.432Z,14
2023-05-22T04:15:46.961Z,14
2023-05-22T04:16:59.702Z,14
2023-05-22T04:18:18.150Z,14.1
2023-05-22T04:19:47.970Z,14
2023-05-22T04:21:26.794Z,14.1
2023-05-22T04:23:03.949Z,14.1
2023-05-22T04:24:49.909Z,14.1
2023-05-22T04:25:59.233Z,14.2
2023-05-22T04:27:09.876Z,14
2023-05-22T04:32:31.499Z,14.3
2023-05-22T04:34:21.809Z,14.4
2023-05-22T04:38:15.198Z,14.4
2023-05-22T04:39:44.105Z,14.4
2023-05-22T04:41:14.480Z,14.4
2023-05-22T04:42:32.082Z,14.4
2023-05-22T04:44:16.781Z,14.5
2023-05-22T04:45:24.109Z,14.5
2023-05-22T04:46:44.435Z,14.5
2023-05-22T04:48:34.530Z,14.6
2023-05-22T04:50:48.527Z,14.7
2023-05-22T04:52:30.381Z,14.8
2023-05-22T05:04:01.632Z,15
2023-05-22T05:05:08.552Z,15
2023-05-22T05:06:15.517Z,15
2023-05-22T05:07:59.467Z,15.1
2023-05-22T05:09:06.520Z,15.2
2023-05-22T05:10:13.931Z,15.2
2023-05-22T05:11:32.234Z,15.2
2023-05-22T05:12:39.280Z,15.2
2023-05-22T05:13:46.639Z,15.2
2023-05-22T05:14:58.209Z,15.2
2023-05-22T05:16:06.583Z,15.1
2023-05-22T05:17:13.536Z,15.2
2023-05-22T05:18:23.277Z,15.3
2023-05-22T05:19:35.412Z,15.3
2023-05-22T05:20:40.651Z,15.2
2023-05-22T05:21:49.394Z,15.3
2023-05-22T05:22:56.346Z,15.3
2023-05-22T05:24:11.550Z,15.3
2023-05-22T05:25:55.022Z,15.3
2023-05-22T05:27:03.356Z,15.5
2023-05-22T05:28:29.955Z,15.5
2023-05-22T05:29:38.940Z,15.6
2023-05-22T05:31:07.881Z,15.6
2023-05-22T05:32:48.793Z,15.6
2023-05-22T05:34:34.486Z,15.6
2023-05-22T05:35:52.065Z,15.7
2023-05-22T05:37:10.636Z,15.7
2023-05-22T05:38:23.397Z,15.7
2023-05-22T05:40:12.131Z,15.7
2023-05-22T05:41:39.452Z,15.7
2023-05-22T05:42:52.267Z,15.8
2023-05-22T05:44:40.828Z,15.8
2023-05-22T05:46:38.938Z,15.8
2023-05-22T05:47:54.226Z,15.8
2023-05-22T05:49:01.031Z,16.2
2023-05-22T05:50:11.541Z,16.2
2023-05-22T05:51:18.517Z,16.1
2023-05-22T05:52:25.285Z,16.2
2023-05-22T05:53:32.103Z,16.3
2023-05-22T05:54:38.935Z,16.4
2023-05-22T05:55:45.855Z,16.4
2023-05-22T05:57:03.497Z,16.5
2023-05-22T05:58:10.357Z,16.6
2023-05-22T06:00:16.527Z,16.6
2023-05-22T06:02:13.187Z,16.6
2023-05-22T06:04:17.022Z,16.6
2023-05-22T06:05:24.945Z,17
2023-05-22T06:06:46.473Z,17.1
2023-05-22T06:07:55.356Z,17.2
2023-05-22T06:09:20.742Z,17.2
2023-05-22T06:10:33.454Z,17.3
2023-05-22T06:11:42.277Z,17.4
2023-05-22T06:12:51.167Z,17.5
2023-05-22T06:14:10.770Z,17.5
2023-05-22T06:15:17.640Z,17.7
2023-05-22T06:16:58.578Z,17.7
2023-05-22T06:18:05.497Z,18
2023-05-22T06:19:12.341Z,18
2023-05-22T06:20:19.066Z,18.1
2023-05-22T06:21:25.952Z,18
2023-05-22T06:22:36.194Z,18.1
2023-05-22T06:23:45.089Z,18.2
2023-05-22T06:24:54.641Z,18.3
2023-05-22T06:26:06.424Z,18.3
2023-05-22T06:27:13.358Z,18.6
2023-05-22T06:28:23.167Z,18.6
2023-05-22T06:29:30.222Z,18.6
2023-05-22T06:30:39.899Z,18.6
2023-05-22T06:31:47.014Z,18.7
2023-05-22T06:34:05.181Z,18.7
2023-05-22T06:35:42.158Z,18.7
2023-05-22T06:37:13.589Z,18.7
2023-05-22T06:38:25.444Z,18.8
2023-05-22T06:39:32.394Z,18.8
2023-05-22T06:40:40.598Z,18.8
2023-05-22T06:41:47.121Z,18.9
2023-05-22T06:42:54.003Z,19.1
2023-05-22T06:44:10.797Z,19.1
2023-05-22T06:45:34.338Z,19.2
2023-05-22T06:46:44.831Z,19.2
2023-05-22T06:47:57.116Z,19.2
2023-05-22T06:49:26.352Z,19.2
2023-05-22T06:52:45.601Z,0
2023-05-22T06:56:33.424Z,0
2023-05-22T07:02:11.023Z,0
2023-05-22T07:32:08.999Z,11.8
2023-05-22T07:33:30.238Z,11.8
2023-05-22T08:03:47.333Z,12.4
2023-05-22T08:08:05.262Z,12.5
2023-05-22T08:29:32.126Z,12.5
2023-05-22T08:56:42.747Z,23.3
2023-05-22T09:08:27.271Z,23.5
2023-05-22T09:11:11.042Z,23.7
2023-05-22T09:13:19.486Z,23.4
2023-05-22T09:20:15.987Z,23.8
2023-05-22T09:23:27.677Z,0
2023-05-22T09:24:56.619Z,10.6
2023-05-22T09:26:43.884Z,10.6
2023-05-22T09:27:50.760Z,23.9
2023-05-22T09:28:57.612Z,23.9
2023-05-22T09:30:04.451Z,24
2023-05-22T09:31:12.398Z,23.8
2023-05-22T09:32:19.226Z,23.8
2023-05-22T09:33:26.147Z,23.8
2023-05-22T09:34:33.568Z,23.7
2023-05-22T09:35:46.162Z,24
2023-05-22T09:36:59.187Z,23.9
2023-05-22T09:38:14.420Z,23.9
2023-05-22T09:39:21.221Z,23.9
2023-05-22T09:40:31.386Z,23.8
2023-05-22T09:41:38.163Z,23.8
2023-05-22T09:42:48.361Z,23.9
2023-05-22T09:43:55.779Z,23.9
2023-05-22T09:45:06.246Z,23.8
2023-05-22T09:46:13.489Z,23.7
2023-05-22T09:47:26.691Z,23.9
2023-05-22T09:48:36.393Z,24.1
2023-05-22T09:49:46.312Z,24.2
2023-05-22T09:51:26.894Z,24.2
2023-05-22T09:52:37.185Z,23.9
2023-05-22T09:54:06.114Z,23.9
2023-05-22T09:55:15.890Z,24.2
2023-05-22T09:56:35.115Z,24.2
2023-05-22T09:57:45.297Z,24.2
2023-05-22T09:58:52.241Z,24.3
2023-05-22T10:00:00.491Z,24
2023-05-22T10:01:32.528Z,24.1
2023-05-22T10:02:39.233Z,24
2023-05-22T10:03:47.949Z,23.8
2023-05-22T10:04:55.815Z,23.7
2023-05-22T10:06:07.968Z,23.7
2023-05-22T10:07:20.927Z,23.7
2023-05-22T10:11:02.835Z,23.9
2023-05-22T10:12:12.573Z,23.5
2023-05-22T10:13:22.264Z,23.8
2023-05-22T10:14:46.762Z,23.8
2023-05-22T10:15:56.522Z,24.2
2023-05-22T10:17:06.513Z,24.4
2023-05-22T10:18:13.234Z,24.3
2023-05-22T10:19:33.261Z,24.3
2023-05-22T10:20:40.585Z,23.9
2023-05-22T10:21:49.972Z,24
2023-05-22T10:22:56.992Z,24.1
2023-05-22T10:24:03.781Z,23.9
2023-05-22T10:25:10.925Z,24.1
2023-05-22T10:26:17.372Z,24.2
2023-05-22T10:28:06.513Z,24.2
2023-05-22T10:29:13.451Z,24.2
2023-05-22T10:30:32.233Z,24.4
2023-05-22T10:31:44.194Z,23.9
2023-05-22T10:32:56.472Z,23.9
2023-05-22T10:34:10.896Z,23.6
2023-05-22T10:35:17.619Z,23.4
2023-05-22T10:36:32.276Z,23.4
2023-05-22T10:37:44.463Z,23.7
2023-05-22T10:38:56.444Z,23.4
2023-05-22T10:40:13.226Z,23.5
2023-05-22T10:42:20.575Z,23.5
2023-05-22T10:43:27.492Z,23.3
2023-05-22T10:44:37.682Z,23.5
2023-05-22T10:46:07.575Z,23.5
2023-05-22T10:47:53.957Z,23.5
2023-05-22T10:49:06.070Z,23.2
2023-05-22T10:50:30.580Z,23.3
2023-05-22T10:51:37.257Z,23.6
2023-05-22T10:53:01.091Z,23.6
2023-05-22T10:54:18.305Z,24
2023-05-22T10:55:25.258Z,24.3
2023-05-22T10:56:32.393Z,24.2
2023-05-22T10:57:39.336Z,24
2023-05-22T10:58:46.187Z,23.8
2023-05-22T10:59:58.162Z,23.9
2023-05-22T11:01:10.412Z,24.1
2023-05-22T11:02:47.814Z,24.1
2023-05-22T11:04:44.597Z,24.1
2023-05-22T11:05:51.304Z,24.3
2023-05-22T11:07:36.031Z,24.3
2023-05-22T11:08:51.897Z,24.3
2023-05-22T11:09:58.800Z,23.5
2023-05-22T11:11:05.791Z,23.5
2023-05-22T11:12:15.730Z,23.6
2023-05-22T11:13:29.224Z,23.9
2023-05-22T11:14:34.845Z,24
2023-05-22T11:15:41.701Z,24
2023-05-22T11:16:48.613Z,23.5
2023-05-22T11:17:55.738Z,23.6
2023-05-22T11:19:07.362Z,23.6
2023-05-22T11:20:09.526Z,23.6
2023-05-22T11:21:29.168Z,23.6
2023-05-22T11:22:36.070Z,24.2
2023-05-22T11:24:00.935Z,24.2
2023-05-22T11:25:07.715Z,24.3
2023-05-22T11:26:25.290Z,24.3
2023-05-22T11:27:30.608Z,23.8
2023-05-22T11:28:37.324Z,24
2023-05-22T11:29:44.202Z,24.2
2023-05-22T11:30:51.167Z,24
2023-05-22T11:31:57.953Z,23.8
2023-05-22T11:33:04.742Z,23.9
2023-05-22T11:34:11.551Z,24.1
2023-05-22T11:35:18.504Z,24.1
2023-05-22T11:36:25.469Z,23.9
2023-05-22T11:37:57.171Z,23.9
2023-05-22T11:42:01.258Z,24.3
2023-05-22T11:43:08.146Z,24.5
2023-05-22T11:44:14.986Z,24.1
2023-05-22T11:45:43.705Z,24.1
2023-05-22T11:46:50.977Z,24.1
2023-05-22T11:47:58.017Z,24.2
2023-05-22T11:49:04.844Z,24.2
2023-05-22T11:50:20.269Z,24
2023-05-22T11:51:47.424Z,24
2023-05-22T11:52:55.067Z,24.2
2023-05-22T11:54:01.889Z,24.3
2023-05-22T11:55:08.751Z,24.2
2023-05-22T11:56:15.609Z,24.1
2023-05-22T11:57:22.660Z,24.2
2023-05-22T11:58:29.517Z,24.1
2023-05-22T11:59:46.435Z,24.1
2023-05-22T12:01:13.153Z,24.1
2023-05-22T12:02:25.965Z,24.1
2023-05-22T12:03:43.201Z,24.1
2023-05-22T12:04:50.653Z,23.5
2023-05-22T12:06:00.370Z,23.6
2023-05-22T12:07:07.343Z,23.5
2023-05-22T12:08:14.113Z,23.7
2023-05-22T12:09:21.104Z,23.8
2023-05-22T12:10:27.908Z,23.6
2023-05-22T12:11:34.717Z,23.8
2023-05-22T12:12:41.591Z,23.8
2023-05-22T12:14:18.117Z,23.8
2023-05-22T12:15:57.406Z,23.8
2023-05-22T12:17:29.244Z,23.9
2023-05-22T12:19:23.209Z,23.9
2023-05-22T12:20:30.038Z,23.7
2023-05-22T12:21:36.931Z,23.6
2023-05-22T12:22:44.206Z,23.6
2023-05-22T12:25:07.038Z,23.6
2023-05-22T12:26:21.647Z,23.8
2023-05-22T12:27:29.264Z,23.9
2023-05-22T12:28:35.441Z,24
2023-05-22T12:29:42.252Z,23.8
2023-05-22T12:30:49.038Z,24
2023-05-22T12:31:55.849Z,23.6
2023-05-22T12:33:02.709Z,23.6
2023-05-22T12:34:09.452Z,23.7
2023-05-22T12:35:16.363Z,23.9
2023-05-22T12:36:23.288Z,23.9
2023-05-22T12:37:38.263Z,23.9
2023-05-22T12:38:45.369Z,23.7
2023-05-22T12:39:52.027Z,23.7
2023-05-22T12:41:01.735Z,23.6
2023-05-22T12:42:08.720Z,23.7
2023-05-22T12:43:15.375Z,24
2023-05-22T12:44:22.141Z,24
2023-05-22T12:45:29.129Z,23.8
2023-05-22T12:46:35.923Z,23.9
2023-05-22T12:47:42.683Z,24
2023-05-22T12:48:49.433Z,24.3
2023-05-22T12:49:56.349Z,24.3
2023-05-22T12:51:03.221Z,24.3
2023-05-22T12:52:09.991Z,24.2
2023-05-22T12:53:16.721Z,24.3
2023-05-22T12:54:23.601Z,24.4
2023-05-22T12:55:30.426Z,24.5
2023-05-22T12:56:37.183Z,24.2
2023-05-22T12:57:43.935Z,24.2
2023-05-22T12:58:50.737Z,24.3
2023-05-22T12:59:57.584Z,24.1
2023-05-22T13:01:04.415Z,24.1
2023-05-22T13:02:11.241Z,24
2023-05-22T13:03:17.989Z,24
2023-05-22T13:04:24.762Z,23.9
2023-05-22T13:05:31.685Z,23.9
2023-05-22T13:06:38.500Z,23.8
2023-05-22T13:07:45.326Z,23.9
2023-05-22T13:08:52.198Z,24
2023-05-22T13:09:59.159Z,24
2023-05-22T13:11:05.954Z,24.2
2023-05-22T13:12:12.835Z,24.1
2023-05-22T13:13:19.563Z,24.1
2023-05-22T13:14:26.318Z,24.2
2023-05-22T13:15:33.211Z,24.1
2023-05-22T13:16:40.059Z,24.3
2023-05-22T13:17:46.846Z,24.2
2023-05-22T13:18:53.707Z,24.3
2023-05-22T13:20:00.493Z,24.4
2023-05-22T13:21:07.499Z,24.5
2023-05-22T13:22:14.243Z,24.6
2023-05-22T13:23:21.161Z,24.2
2023-05-22T13:24:27.989Z,24
2023-05-22T13:25:34.921Z,23.9
2023-05-22T13:26:41.628Z,24.1
2023-05-22T13:27:48.489Z,24.3
2023-05-22T13:28:55.273Z,24.3
2023-05-22T13:30:02.090Z,24.4
2023-05-22T13:31:09.906Z,24.3
2023-05-22T13:32:16.768Z,24.1
2023-05-22T13:33:23.544Z,24.4
2023-05-22T13:34:30.388Z,24.5
2023-05-22T13:35:37.258Z,24.6
2023-05-22T13:36:44.007Z,24.5
2023-05-22T13:37:50.884Z,24.6
2023-05-22T13:38:57.666Z,24.7
2023-05-22T13:40:04.486Z,24.8
2023-05-22T13:41:11.604Z,24.8
2023-05-22T13:42:18.428Z,24.9
2023-05-22T13:43:25.221Z,24.7
2023-05-22T13:44:31.991Z,24.5
2023-05-22T13:45:39.060Z,24.7
2023-05-22T13:46:45.642Z,24.5
2023-05-22T13:47:52.451Z,24.6
2023-05-22T13:48:59.202Z,24.5
2023-05-22T13:50:06.005Z,24.3
2023-05-22T13:51:12.853Z,24.3
2023-05-22T13:52:19.813Z,24.3
2023-05-22T13:53:26.640Z,24.2
2023-05-22T13:54:33.426Z,24.3
2023-05-22T13:55:40.490Z,24.2
2023-05-22T13:56:47.082Z,24.1
2023-05-22T13:57:53.818Z,24.2
2023-05-22T13:59:00.636Z,24.2
2023-05-22T14:00:07.406Z,24.3
2023-05-22T14:01:14.658Z,24.4
2023-05-22T14:02:21.496Z,24.5
2023-05-22T14:03:28.288Z,24.6
2023-05-22T14:04:35.031Z,24.7
2023-05-22T14:05:42.135Z,24.7
2023-05-22T14:06:48.640Z,24.6
2023-05-22T14:07:55.438Z,24.4
2023-05-22T14:09:02.256Z,24.3
2023-05-22T14:10:08.980Z,23.9
2023-05-22T14:11:15.733Z,23.9
2023-05-22T14:12:22.588Z,24
2023-05-22T14:13:29.273Z,24.1
2023-05-22T14:14:36.016Z,24.2
2023-05-22T14:15:42.898Z,24.2
2023-05-22T14:16:49.638Z,24.3
2023-05-22T14:17:56.495Z,24.4
2023-05-22T14:19:03.283Z,24.4
2023-05-22T14:20:09.993Z,24.3
2023-05-22T14:21:16.755Z,24.2
2023-05-22T14:22:23.559Z,24.2
2023-05-22T14:23:30.426Z,24.3
2023-05-22T14:24:37.204Z,24.3
2023-05-22T14:25:44.091Z,24.3
2023-05-22T14:26:50.834Z,24.3
2023-05-22T14:27:57.694Z,24
2023-05-22T14:29:05.003Z,24.1
2023-05-22T14:30:11.769Z,24.1
2023-05-22T14:31:18.605Z,24.1
2023-05-22T14:32:25.352Z,24.1
2023-05-22T14:33:32.155Z,23.8
2023-05-22T14:34:39.055Z,24
2023-05-22T14:35:45.777Z,24.1
2023-05-22T14:36:52.627Z,24.3
2023-05-22T14:38:02.377Z,24.2
2023-05-22T14:39:09.158Z,24
2023-05-22T14:40:15.918Z,24
2023-05-22T14:41:22.885Z,23.9
2023-05-22T14:42:29.644Z,23.9
2023-05-22T14:43:36.578Z,24
2023-05-22T14:44:43.235Z,23.9
2023-05-22T14:45:50.103Z,23.9
2023-05-22T14:46:56.946Z,24
2023-05-22T14:48:03.808Z,23.8
2023-05-22T14:49:10.571Z,23.7
2023-05-22T14:50:19.497Z,23.7
2023-05-22T14:51:24.281Z,23.8
2023-05-22T14:52:31.060Z,23.9
2023-05-22T14:53:37.898Z,23.6
2023-05-22T14:54:44.695Z,23.5
2023-05-22T14:55:51.519Z,23.5
2023-05-22T14:56:58.401Z,23.6
2023-05-22T14:58:05.189Z,23.5
2023-05-22T14:59:12.139Z,23.5
2023-05-22T15:00:18.785Z,23.6
2023-05-22T15:01:25.639Z,23.7
2023-05-22T15:02:32.506Z,23.8
2023-05-22T15:03:39.363Z,23.9
2023-05-22T15:04:46.214Z,23.9
2023-05-22T15:05:53.006Z,23.8
2023-05-22T15:06:59.805Z,23.8
2023-05-22T15:08:06.671Z,23.8
2023-05-22T15:09:13.433Z,23.9
2023-05-22T15:10:20.223Z,23.8
2023-05-22T15:11:27.035Z,23.9
2023-05-22T15:12:33.907Z,24
2023-05-22T15:13:40.648Z,24
2023-05-22T15:14:47.463Z,24
2023-05-22T15:15:54.151Z,23.9
2023-05-22T15:17:00.871Z,23.8
2023-05-22T15:18:07.759Z,23.8
2023-05-22T15:19:14.598Z,23.8
2023-05-22T15:20:21.294Z,23.9
2023-05-22T15:21:28.069Z,23.8
2023-05-22T15:22:34.821Z,23.7
2023-05-22T15:23:41.845Z,23.8
2023-05-22T15:24:48.553Z,24
2023-05-22T15:26:05.662Z,23.7
2023-05-22T15:27:12.544Z,23.8
2023-05-22T15:28:19.383Z,23.7
2023-05-22T15:29:26.307Z,23.8
2023-05-22T15:30:33.204Z,23.8
2023-05-22T15:31:39.889Z,23.8
2023-05-22T15:32:46.788Z,23.7
2023-05-22T15:33:53.509Z,23.5
2023-05-22T15:35:00.282Z,23.6
2023-05-22T15:36:07.185Z,23.7
2023-05-22T15:37:13.988Z,23.7
2023-05-22T15:38:20.830Z,23.6
2023-05-22T15:39:27.553Z,23.5
2023-05-22T15:40:34.283Z,23.5
2023-05-22T15:41:41.976Z,23.5
2023-05-22T15:42:47.881Z,23.6
2023-05-22T15:43:54.608Z,23.6
2023-05-22T15:45:01.548Z,23.4
2023-05-22T15:46:08.699Z,23.1
2023-05-22T15:47:15.386Z,23.3
2023-05-22T15:48:22.182Z,23.2
2023-05-22T15:49:31.188Z,23.3
2023-05-22T15:50:35.791Z,23.3
2023-05-22T15:51:42.596Z,23.3
2023-05-22T15:52:49.610Z,23.3
2023-05-22T15:53:56.545Z,23.2
2023-05-22T15:55:03.297Z,23.3
2023-05-22T15:56:10.261Z,23.3
2023-05-22T15:57:17.060Z,23.5
2023-05-22T15:58:23.889Z,23.5
2023-05-22T15:59:30.819Z,23.5
2023-05-22T16:00:37.606Z,23.5
2023-05-22T16:01:44.522Z,23.2
2023-05-22T16:02:51.325Z,23.4
2023-05-22T16:03:58.070Z,23.2
2023-05-22T16:05:04.813Z,23.3
2023-05-22T16:06:11.797Z,23.4
2023-05-22T16:07:18.608Z,23.4
2023-05-22T16:08:25.475Z,23.4
2023-05-22T16:09:32.910Z,23.4
2023-05-22T16:10:39.254Z,23.4
2023-05-22T16:11:46.079Z,23.5
2023-05-22T16:12:52.849Z,23.5
2023-05-22T16:13:59.713Z,23.4
2023-05-22T16:15:07.088Z,23.5
2023-05-22T16:16:13.587Z,23.5
2023-05-22T16:17:20.448Z,23.4
2023-05-22T16:18:27.219Z,23.3
2023-05-22T16:19:34.301Z,23.2
2023-05-22T16:20:41.092Z,23.1
2023-05-22T16:21:47.868Z,23.1
2023-05-22T16:22:54.716Z,23.1
2023-05-22T16:24:01.801Z,23.1
2023-05-22T16:25:08.629Z,23.1
2023-05-22T16:26:15.507Z,23.1
2023-05-22T16:27:22.372Z,23.2
2023-05-22T16:28:29.181Z,23.1
2023-05-22T16:29:35.984Z,23.1
2023-05-22T16:30:42.806Z,23.2
2023-05-22T16:31:49.630Z,23.2
2023-05-22T16:32:56.485Z,23.2
2023-05-22T16:34:03.108Z,23.2
2023-05-22T16:35:09.914Z,23.2
2023-05-22T16:36:16.674Z,23.2
2023-05-22T16:37:23.607Z,23.1
2023-05-22T16:38:30.353Z,23.1
2023-05-22T16:39:37.179Z,23.1
2023-05-22T16:40:43.981Z,23
2023-05-22T16:41:52.909Z,23.1
2023-05-22T16:42:57.547Z,23
2023-05-22T16:44:04.350Z,23
2023-05-22T16:45:11.179Z,23
2023-05-22T16:46:17.930Z,23
2023-05-22T16:47:24.726Z,23
2023-05-22T16:48:31.687Z,22.8
2023-05-22T16:49:38.396Z,22.9
2023-05-22T16:50:45.270Z,22.9
2023-05-22T16:51:52.023Z,22.8
2023-05-22T16:52:58.832Z,22.8
2023-05-22T16:54:05.608Z,22.8
2023-05-22T16:55:12.498Z,22.8
2023-05-22T16:56:19.261Z,22.8
2023-05-22T16:57:26.096Z,22.7
2023-05-22T16:58:32.905Z,22.8
2023-05-22T16:59:39.802Z,22.8
2023-05-22T17:00:46.799Z,22.8
2023-05-22T17:01:53.601Z,22.8
2023-05-22T17:03:00.409Z,22.6
2023-05-22T17:04:07.387Z,22.6
2023-05-22T17:05:14.234Z,22.5
2023-05-22T17:06:21.251Z,22.5
2023-05-22T17:07:27.919Z,22.5
2023-05-22T17:08:37.559Z,22.6
2023-05-22T17:09:44.564Z,22.6
2023-05-22T17:10:51.434Z,22.6
2023-05-22T17:11:58.506Z,22.6
2023-05-22T17:13:05.522Z,22.6
2023-05-22T17:14:13.396Z,22.6
2023-05-22T17:15:20.232Z,22.5
2023-05-22T17:16:27.077Z,22.5
2023-05-22T17:17:33.886Z,22.4
2023-05-22T17:18:40.696Z,22.4
2023-05-22T17:19:47.677Z,22.4
2023-05-22T17:20:54.336Z,22.4
2023-05-22T17:22:01.141Z,22.4
2023-05-22T17:23:08.112Z,22.4
2023-05-22T17:24:15.078Z,22.4
2023-05-22T17:25:21.754Z,22.4
2023-05-22T17:26:28.559Z,22.3
2023-05-22T17:27:36.724Z,22.3
2023-05-22T17:28:42.567Z,22.3
2023-05-22T17:29:49.463Z,22.3
2023-05-22T17:30:56.227Z,22.3
2023-05-22T17:32:03.084Z,22.3
2023-05-22T17:33:10.009Z,22.3
2023-05-22T17:34:17.099Z,22.3
2023-05-22T17:35:24.114Z,22.3
2023-05-22T17:36:30.777Z,22.3
2023-05-22T17:37:37.622Z,22.3
2023-05-22T17:38:44.424Z,22.2
2023-05-22T17:39:51.248Z,22.3
2023-05-22T17:41:16.984Z,22.2
2023-05-22T17:42:23.939Z,22.2
2023-05-22T17:43:31.166Z,22.2
2023-05-22T17:44:41.774Z,22.2
2023-05-22T17:45:50.400Z,22.1
2023-05-22T17:47:05.237Z,22.1
2023-05-22T17:48:14.463Z,22.1
2023-05-22T17:49:22.669Z,22
2023-05-22T17:50:30.627Z,22
2023-05-22T17:51:39.128Z,21.9
2023-05-22T17:52:45.951Z,21.9
2023-05-22T17:53:52.818Z,21.9
2023-05-22T17:55:06.803Z,21.9
2023-05-22T17:56:16.772Z,21.8
2023-05-22T17:57:23.549Z,21.8
2023-05-22T17:58:30.441Z,21.7
2023-05-22T17:59:39.295Z,21.7
2023-05-22T18:00:44.074Z,21.6
2023-05-22T18:01:51.000Z,21.5
2023-05-22T18:02:58.680Z,21.5
2023-05-22T18:04:05.565Z,21.5
2023-05-22T18:05:15.024Z,21.5
2023-05-22T18:06:24.213Z,21.4
2023-05-22T18:07:31.653Z,21.4
2023-05-22T18:08:42.118Z,21.3
2023-05-22T18:09:50.130Z,21.3
2023-05-22T18:10:57.017Z,21.3
2023-05-22T18:12:07.226Z,21.3
2023-05-22T18:13:14.297Z,21.2
2023-05-22T18:14:21.469Z,21.2
2023-05-22T18:15:28.584Z,21.1
2023-05-22T18:16:35.591Z,21.1
2023-05-22T18:17:42.400Z,21
2023-05-22T18:18:49.323Z,21
2023-05-22T18:19:56.249Z,21
2023-05-22T18:21:03.429Z,20.9
2023-05-22T18:22:13.628Z,20.9
2023-05-22T18:23:21.957Z,20.8
2023-05-22T18:24:31.724Z,20.8
2023-05-22T18:25:41.421Z,20.7
2023-05-22T18:26:48.272Z,20.7
2023-05-22T18:27:55.484Z,20.7
2023-05-22T18:29:08.498Z,20.6
2023-05-22T18:30:18.251Z,20.5
2023-05-22T18:31:25.801Z,20.5
2023-05-22T18:32:32.722Z,20.5
2023-05-22T18:33:39.473Z,20.5
2023-05-22T18:34:46.357Z,20.5
2023-05-22T18:35:55.832Z,20.4
2023-05-22T18:37:05.453Z,20.4
2023-05-22T18:38:12.385Z,20.3
2023-05-22T18:39:19.614Z,20.3
2023-05-22T18:40:26.496Z,20.2
2023-05-22T18:41:33.284Z,20.2
2023-05-22T18:42:43.014Z,20.1
2023-05-22T18:43:49.904Z,20.1